Time;durP1;ratioP1;P1;durP2;ratioP2;P2;SDS_P1;SDS_P2;PMS_P1;PMS_P2;Temp;Humidity;BMP_temperature;BMP_pressure;BME280_temperature;BME280_humidity;BME280_pressure;Samples;Min_cycle;Max_cycle;Signal;HPM_P1;HPM_P2
2023/06/22 00:00:44;;;;;;;8.77;4.17;;;;;;;;;;4997406;28;97852;-26
2023/06/22 00:03:09;;;;;;;8.68;4.40;;;;;;;19.78;67.00;102034.44;4997297;28;96425;-26
2023/06/22 00:05:35;;;;;;;11.38;4.60;;;;;;;19.74;68.02;102032.97;4997152;28;96832;-26
2023/06/22 00:08:07;;;;;;;7.82;4.47;;;;;;;19.67;67.57;102028.94;4996905;28;98030;-26
2023/06/22 00:10:32;;;;;;;7.20;4.03;;;;;;;19.61;67.51;102026.69;4995532;28;98800;-26
2023/06/22 00:12:58;;;;;;;7.88;4.65;;;;;;;19.56;68.19;102028.94;4997046;28;96625;-26
2023/06/22 00:15:23;;;;;;;5.97;3.67;;;;;;;19.54;68.44;102020.81;4996069;28;96809;-27
2023/06/22 00:17:49;;;;;;;9.05;4.18;;;;;;;19.57;67.72;102025.16;4995608;28;99768;-26
2023/06/22 00:20:16;;;;;;;7.32;4.30;;;;;;;19.55;68.13;102024.44;4995348;28;100863;-27
2023/06/22 00:22:42;;;;;;;6.55;4.05;;;;;;;19.57;68.19;102025.16;4994972;28;96719;-26
2023/06/22 00:25:08;;;;;;;8.25;3.70;;;;;;;19.59;68.04;102017.69;4995643;28;96903;-26
2023/06/22 00:27:34;;;;;;;9.35;4.63;;;;;;;19.59;67.73;102007.56;4996509;28;99408;-27
2023/06/22 00:30:00;;;;;;;8.18;4.18;;;;;;;19.55;68.17;102008.81;4995177;28;100817;-26
2023/06/22 00:32:25;;;;;;;7.38;4.30;;;;;;;19.53;68.02;101989.69;4996633;28;96703;-26
2023/06/22 00:34:50;;;;;;;7.57;3.85;;;;;;;19.53;68.09;101997.06;4996166;28;97044;-27
2023/06/22 00:37:17;;;;;;;9.65;4.47;;;;;;;19.50;67.81;101991.84;4996447;28;97495;-28
2023/06/22 00:39:43;;;;;;;7.22;4.28;;;;;;;19.47;68.02;101989.31;4995496;28;101207;-26
2023/06/22 00:42:08;;;;;;;7.57;3.97;;;;;;;19.49;68.27;102001.94;4996576;28;99909;-26
2023/06/22 00:44:35;;;;;;;7.88;3.47;;;;;;;19.46;68.07;101996.69;4996867;28;96737;-27
2023/06/22 00:47:00;;;;;;;6.30;3.60;;;;;;;19.43;69.15;101996.94;4994631;28;101082;-26
2023/06/22 00:49:25;;;;;;;5.97;3.40;;;;;;;19.41;68.20;101995.31;4996467;28;97595;-26
2023/06/22 00:51:52;;;;;;;5.68;3.33;;;;;;;19.38;68.50;101988.22;4996995;28;96731;-27
2023/06/22 00:54:24;;;;;;;7.70;3.50;;;;;;;19.39;68.45;101992.69;4995338;28;96832;-26
2023/06/22 00:56:57;;;;;;;7.53;4.20;;;;;;;19.40;69.15;101994.47;4994973;28;101000;-26
2023/06/22 00:59:24;;;;;;;8.85;3.72;;;;;;;19.31;68.87;101992.44;4994809;28;100673;-26
2023/06/22 01:01:49;;;;;;;7.68;3.63;;;;;;;19.28;68.46;101988.06;4995090;28;96583;-26
2023/06/22 01:04:15;;;;;;;10.05;3.88;;;;;;;19.27;69.74;101982.69;4996717;28;96889;-27
2023/06/22 01:07:13;;;;;;;6.55;3.55;;;;;;;19.35;69.40;101982.06;4996203;28;97992;-27
2023/06/22 01:09:49;;;;;;;6.75;3.65;;;;;;;19.29;68.82;101988.94;4994691;28;101285;-27
2023/06/22 01:12:17;;;;;;;7.10;3.78;;;;;;;19.23;69.27;101983.94;4996269;28;96611;-28
2023/06/22 01:14:52;;;;;;;8.35;4.00;;;;;;;19.21;69.49;101986.81;4996252;28;96848;-27
2023/06/22 01:17:19;;;;;;;6.90;3.65;;;;;;;19.24;69.04;101980.19;4995878;28;98496;-26
2023/06/22 01:19:46;;;;;;;7.10;3.72;;;;;;;19.24;69.40;101993.94;4994504;28;101159;-26
2023/06/22 01:22:16;;;;;;;9.45;4.00;;;;;;;19.15;69.59;101973.56;4995938;28;96546;-26
2023/06/22 01:24:51;;;;;;;6.68;3.30;;;;;;;19.18;69.57;101998.03;4994785;28;96825;-26
2023/06/22 01:27:35;;;;;;;7.60;3.65;;;;;;;19.16;70.49;101993.66;4994082;28;101415;-27
2023/06/22 01:30:02;;;;;;;6.03;3.47;;;;;;;19.15;69.88;101989.19;4995898;28;98008;-27
2023/06/22 01:32:34;;;;;;;7.63;3.67;;;;;;;19.11;70.34;102002.25;4995765;28;96654;-27
2023/06/22 01:35:00;;;;;;;;;;;;;;;19.06;71.32;101994.38;4994471;28;96850;-26
2023/06/22 01:37:28;;;;;;;8.25;3.42;;;;;;;19.04;70.37;101990.91;4995305;28;98059;-26
2023/06/22 01:39:55;;;;;;;6.68;3.72;;;;;;;19.01;70.13;101984.78;4995713;28;97239;-27
2023/06/22 01:42:23;;;;;;;8.18;3.83;;;;;;;18.97;70.67;101997.84;4994337;28;96534;-26
2023/06/22 01:44:48;;;;;;;8.50;3.55;;;;;;;18.91;70.77;101994.75;4994354;28;96801;-27
2023/06/22 01:47:14;;;;;;;5.78;3.50;;;;;;;18.87;71.30;101986.72;4995552;28;97456;-26
2023/06/22 01:49:40;;;;;;;8.23;4.15;;;;;;;18.83;71.00;101982.50;4995215;28;99134;-27
2023/06/22 01:52:07;;;;;;;9.07;4.00;;;;;;;18.84;70.95;101992.47;4994040;28;96881;-26
2023/06/22 01:54:32;;;;;;;6.70;3.53;;;;;;;18.78;71.54;101984.72;4994593;28;96920;-26
2023/06/22 01:56:58;;;;;;;7.25;3.85;;;;;;;18.79;71.40;101991.09;4995540;28;98193;-27
2023/06/22 01:59:34;;;;;;;7.07;3.92;;;;;;;18.74;72.07;101980.44;4995070;28;98747;-26
2023/06/22 02:02:07;;;;;;;8.90;4.47;;;;;;;18.76;72.14;101985.78;4993641;28;96710;-26
2023/06/22 02:04:42;;;;;;;7.78;4.07;;;;;;;18.70;72.30;101989.03;4993770;28;96781;-27
2023/06/22 02:07:13;;;;;;;7.70;4.28;;;;;;;18.62;73.04;101978.66;4993691;28;101147;-26
2023/06/22 02:09:42;;;;;;;8.73;4.35;;;;;;;18.65;72.44;101987.50;4995200;28;99563;-28
2023/06/22 02:12:10;;;;;;;7.50;4.40;;;;;;;18.64;72.32;101982.16;4993997;28;96580;-27
2023/06/22 02:14:36;;;;;;;6.65;3.95;;;;;;;18.64;72.80;101976.66;4995295;28;96819;-27
2023/06/22 02:17:04;;;;;;;9.85;4.65;;;;;;;18.61;71.97;101977.75;4993624;28;101302;-27
2023/06/22 02:19:33;;;;;;;8.88;4.68;;;;;;;18.59;73.27;101978.84;4993980;28;101006;-26
2023/06/22 02:21:58;;;;;;;9.02;4.55;;;;;;;18.55;72.78;101980.97;4993806;28;97138;-27
2023/06/22 02:24:23;;;;;;;11.05;4.80;;;;;;;18.48;73.01;101963.25;4995315;28;96801;-26
2023/06/22 02:26:49;;;;;;;9.10;4.75;;;;;;;18.48;72.91;101954.16;4994522;28;97946;-26
2023/06/22 02:29:14;;;;;;;7.30;4.45;;;;;;;18.53;72.60;101960.16;4993461;28;100811;-27
2023/06/22 02:31:40;;;;;;;10.70;5.50;;;;;;;18.52;72.93;101955.63;4994861;28;96566;-27
2023/06/22 02:34:05;;;;;;;10.27;5.05;;;;;;;18.51;73.70;101959.38;4995020;28;96915;-26
2023/06/22 02:36:33;;;;;;;12.98;5.60;;;;;;;18.53;73.32;101965.63;4994505;28;97980;-26
2023/06/22 02:39:01;;;;;;;10.05;4.70;;;;;;;18.50;74.05;101968.63;4994585;28;99534;-26
2023/06/22 02:41:27;;;;;;;11.43;5.43;;;;;;;18.49;73.49;101961.38;4992725;28;96695;-27
2023/06/22 02:43:52;;;;;;;10.63;5.35;;;;;;;18.48;73.52;101970.59;4993768;28;98409;-26
2023/06/22 02:46:17;;;;;;;9.85;5.22;;;;;;;18.42;73.80;101960.97;4994526;28;98022;-27
2023/06/22 02:48:43;;;;;;;10.30;5.53;;;;;;;18.43;74.73;101968.22;4994600;28;97743;-27
2023/06/22 02:51:08;;;;;;;11.85;5.53;;;;;;;18.40;74.36;101963.84;4994523;28;96946;-27
2023/06/22 02:53:34;;;;;;;10.43;5.43;;;;;;;18.40;74.41;101972.06;4993354;28;96832;-26
2023/06/22 02:56:05;;;;;;;10.82;5.80;;;;;;;18.39;74.46;101969.44;4994564;28;98486;-26
2023/06/22 02:58:30;;;;;;;12.43;5.90;;;;;;;18.36;74.83;101987.00;4993129;28;100802;-26
2023/06/22 03:00:56;;;;;;;9.32;5.78;;;;;;;18.33;74.94;101983.59;4994688;28;96674;-27
2023/06/22 03:03:21;;;;;;;15.02;5.95;;;;;;;18.30;75.01;101978.38;4994334;28;98329;-27
2023/06/22 03:05:46;;;;;;;11.13;5.25;;;;;;;18.28;74.92;101988.56;4994591;28;97362;-26
2023/06/22 03:08:12;;;;;;;9.57;4.85;;;;;;;18.23;75.51;101984.34;4994847;28;97733;-27
2023/06/22 03:10:37;;;;;;;11.50;5.15;;;;;;;18.17;75.55;101979.31;4994615;28;96599;-26
2023/06/22 03:13:02;;;;;;;12.25;5.88;;;;;;;18.22;75.66;101967.97;4994765;28;96778;-27
2023/06/22 03:15:29;;;;;;;10.88;5.85;;;;;;;18.16;75.52;101961.09;4993543;28;97338;-26
2023/06/22 03:17:55;;;;;;;13.10;6.13;;;;;;;18.13;75.44;101958.56;4992734;28;100767;-27
2023/06/22 03:20:20;;;;;;;11.13;5.57;;;;;;;18.17;75.75;101953.75;4993077;28;96622;-27
2023/06/22 03:22:46;;;;;;;10.25;5.60;;;;;;;18.17;76.11;101943.66;4994701;28;96794;-26
2023/06/22 03:25:14;;;;;;;10.43;6.10;;;;;;;18.17;76.19;101953.75;4992547;28;101315;-26
2023/06/22 03:27:43;;;;;;;9.68;5.40;;;;;;;18.17;75.77;101935.41;4992587;28;100990;-26
2023/06/22 03:30:11;;;;;;;11.15;5.35;;;;;;;18.20;75.76;101940.66;4994297;28;96714;-28
2023/06/22 03:32:37;;;;;;;14.80;6.30;;;;;;;18.25;76.79;101949.41;4993182;28;96864;-27
2023/06/22 03:35:02;;;;;;;11.10;6.00;;;;;;;18.21;76.10;101936.03;4993234;28;97849;-27
2023/06/22 03:37:28;;;;;;;9.98;5.85;;;;;;;18.22;75.61;101938.69;4993987;28;99061;-27
2023/06/22 03:39:53;;;;;;;13.27;5.75;;;;;;;18.22;76.30;101932.31;4994004;28;96624;-27
2023/06/22 03:42:19;;;;;;;11.55;5.60;;;;;;;18.25;76.29;101938.44;4992909;28;96870;-26
2023/06/22 03:44:44;;;;;;;13.63;6.07;;;;;;;18.26;76.94;101939.34;4993671;28;98194;-26
2023/06/22 03:47:09;;;;;;;11.07;6.00;;;;;;;18.20;76.27;101932.44;4994057;28;97821;-26
2023/06/22 03:49:35;;;;;;;10.25;5.57;;;;;;;18.20;76.98;101928.81;4994145;28;96730;-26
2023/06/22 03:52:02;;;;;;;11.00;6.07;;;;;;;18.23;75.97;101934.97;4993126;28;96931;-26
2023/06/22 03:54:28;;;;;;;13.50;6.40;;;;;;;18.20;76.49;101935.19;4995881;28;100877;-26
2023/06/22 03:56:54;;;;;;;12.23;6.35;;;;;;;18.22;76.58;101930.44;4996202;28;100982;-28
2023/06/22 03:59:19;;;;;;;9.73;5.32;;;;;;;18.19;76.85;101921.59;4997295;28;96699;-27
2023/06/22 04:01:44;;;;;;;12.20;6.13;;;;;;;18.24;76.30;101925.72;4997692;28;96489;-26
2023/06/22 04:04:10;;;;;;;9.90;5.70;;;;;;;18.20;76.91;101929.69;4996326;28;99376;-26
2023/06/22 04:06:35;;;;;;;10.70;5.70;;;;;;;18.25;77.50;101929.34;4997280;28;97287;-27
2023/06/22 04:09:00;;;;;;;11.90;5.57;;;;;;;18.29;77.46;101924.50;4997238;28;96670;-27
2023/06/22 04:11:26;;;;;;;13.15;6.00;;;;;;;18.25;76.50;101916.50;4996009;28;96882;-27
2023/06/22 04:13:51;;;;;;;11.45;5.45;;;;;;;18.31;76.69;101922.53;4996775;28;98059;-27
2023/06/22 04:16:17;;;;;;;9.52;5.43;;;;;;;18.34;75.98;101914.91;4997020;28;97797;-26
2023/06/22 04:18:42;;;;;;;13.98;6.10;;;;;;;18.38;76.47;101929.28;4997679;28;96825;-26
2023/06/22 04:21:08;;;;;;;15.07;5.88;;;;;;;18.37;76.17;101919.28;4997550;28;96795;-26
2023/06/22 04:23:33;;;;;;;13.65;5.57;;;;;;;18.39;77.17;101922.78;4996843;28;97359;-27
2023/06/22 04:25:59;;;;;;;10.95;5.75;;;;;;;18.43;76.66;101935.28;4996734;28;97344;-26
2023/06/22 04:28:24;;;;;;;13.10;6.32;;;;;;;18.45;75.78;101936.91;4994548;28;96794;-26
2023/06/22 04:30:50;;;;;;;11.30;5.70;;;;;;;18.47;76.11;101942.25;4996419;28;96845;-27
2023/06/22 04:33:16;;;;;;;10.68;5.88;;;;;;;18.44;75.92;101934.28;4994552;28;101556;-26
2023/06/22 04:35:45;;;;;;;10.68;5.72;;;;;;;18.48;76.48;101935.81;4994521;28;101082;-27
2023/06/22 04:38:13;;;;;;;13.25;5.57;;;;;;;18.53;76.26;101940.94;4995035;28;96832;-27
2023/06/22 04:40:39;;;;;;;10.38;5.35;;;;;;;18.54;76.05;101945.41;4995337;28;96844;-27
2023/06/22 04:43:06;;;;;;;9.48;5.00;;;;;;;18.58;76.15;101946.94;4994126;28;100809;-26
2023/06/22 04:45:32;;;;;;;15.40;6.28;;;;;;;18.57;76.05;101950.69;4978822;28;100739;-26
2023/06/22 04:47:58;;;;;;;12.85;5.25;;;;;;;18.60;76.33;101944.94;4995378;28;96613;-26
2023/06/22 04:50:23;;;;;;;13.52;5.63;;;;;;;18.66;76.05;101948.09;4994450;28;97171;-27
2023/06/22 04:52:49;;;;;;;11.85;6.05;;;;;;;18.67;75.65;101952.56;4993240;28;99605;-30
2023/06/22 04:55:19;;;;;;;10.48;5.57;;;;;;;18.67;76.09;101949.84;4992214;28;100898;-27
2023/06/22 04:57:48;;;;;;;13.00;5.47;;;;;;;18.66;75.94;101947.19;4992477;28;97910;-28
2023/06/22 05:00:17;;;;;;;11.10;5.32;;;;;;;18.67;76.54;101944.34;4992540;28;97312;-27
2023/06/22 05:02:44;;;;;;;13.57;5.60;;;;;;;18.73;75.51;101959.44;4993698;28;97760;-31
2023/06/22 05:05:13;;;;;;;11.55;5.43;;;;;;;18.72;76.00;101949.47;4991902;28;98954;-27
2023/06/22 05:07:39;;;;;;;9.60;5.38;;;;;;;18.78;75.81;101951.78;4993478;28;96961;-27
2023/06/22 05:10:05;;;;;;;10.70;5.47;;;;;;;18.79;75.58;101941.66;4993603;28;96847;-30
2023/06/22 05:12:30;;;;;;;10.00;5.57;;;;;;;18.85;75.27;101942.06;4994951;28;97920;-26
2023/06/22 05:14:56;;;;;;;12.57;5.72;;;;;;;18.89;74.65;101942.69;4995934;28;97794;-27
2023/06/22 05:17:21;;;;;;;8.65;5.35;;;;;;;18.94;75.26;101934.94;4995950;28;96638;-26
2023/06/22 05:19:50;;;;;;;11.90;5.28;;;;;;;19.02;74.83;101939.81;4996282;28;96781;-26
2023/06/22 05:22:16;;;;;;;11.43;5.70;;;;;;;19.06;74.08;101939.47;4994359;28;101161;-27
2023/06/22 05:24:42;;;;;;;10.65;5.30;;;;;;;19.11;75.05;101936.34;4995445;28;99112;-28
2023/06/22 05:27:08;;;;;;;9.63;5.05;;;;;;;19.08;74.83;101936.59;4994780;28;96812;-26
2023/06/22 05:29:33;;;;;;;9.18;4.93;;;;;;;19.14;74.91;101936.13;4994784;28;96916;-27
2023/06/22 05:31:58;;;;;;;8.95;4.78;;;;;;;19.17;74.32;101929.50;4995706;28;98128;-27
2023/06/22 05:34:24;;;;;;;10.27;5.18;;;;;;;19.18;74.57;101931.22;4995368;28;98674;-28
2023/06/22 05:36:49;;;;;;;12.27;5.40;;;;;;;19.24;75.07;101939.00;4994570;28;96539;-27
2023/06/22 05:39:15;;;;;;;10.85;4.97;;;;;;;19.22;74.51;101928.13;4995821;28;96758;-26
2023/06/22 05:41:41;;;;;;;10.02;4.55;;;;;;;19.19;75.44;101917.38;4994824;28;99349;-28
2023/06/22 05:44:06;;;;;;;9.20;4.25;;;;;;;19.29;74.34;101940.34;4993992;28;101011;-26
2023/06/22 05:46:32;;;;;;;7.30;4.70;;;;;;;19.37;74.14;101939.72;4995670;28;96513;-26
2023/06/22 05:48:58;;;;;;;8.40;4.80;;;;;;;19.45;73.77;101934.50;4994453;28;96811;-26
2023/06/22 05:51:23;;;;;;;6.60;4.35;;;;;;;19.64;73.56;101938.47;4995184;28;99238;-28
2023/06/22 05:53:49;;;;;;;10.50;4.88;;;;;;;19.73;73.98;101938.63;4994902;28;103263;-26
2023/06/22 05:56:15;;;;;;;8.52;3.83;;;;;;;19.71;73.77;101936.97;4995451;28;96578;-27
2023/06/22 05:58:41;;;;;;;7.15;3.95;;;;;;;19.78;73.22;101942.84;4996380;28;96782;-27
2023/06/22 06:01:06;;;;;;;6.43;3.90;;;;;;;19.75;74.42;101935.72;4995333;28;98071;-27
2023/06/22 06:03:32;;;;;;;8.07;4.80;;;;;;;19.78;74.27;101937.34;4995159;28;107183;-27
2023/06/22 06:05:57;;;;;;;8.07;4.47;;;;;;;19.78;73.02;101935.47;4995266;28;96617;-26
2023/06/22 06:08:22;;;;;;;9.05;5.18;;;;;;;19.83;73.91;101935.97;4995387;28;96891;-27
2023/06/22 06:10:48;;;;;;;6.93;4.25;;;;;;;;;;4995132;28;98479;-27
2023/06/22 06:13:13;;;;;;;8.00;4.05;;;;;;;19.87;73.50;101945.69;4995362;28;97726;-26
2023/06/22 06:15:38;;;;;;;10.10;4.60;;;;;;;19.87;73.57;101937.44;4994211;28;100051;-27
2023/06/22 06:18:05;;;;;;;7.63;3.65;;;;;;;19.89;73.43;101931.84;4995463;28;96664;-26
2023/06/22 06:20:31;;;;;;;8.90;4.40;;;;;;;19.91;73.40;101932.59;4993683;28;101096;-26
2023/06/22 06:22:56;;;;;;;7.15;3.83;;;;;;;20.01;72.95;101935.44;4993734;28;101175;-27
2023/06/22 06:25:22;;;;;;;9.07;3.85;;;;;;;20.00;73.08;101929.06;4995266;28;96507;-26
2023/06/22 06:27:49;;;;;;;6.07;3.50;;;;;;;20.02;73.04;101926.16;4995350;28;96758;-26
2023/06/22 06:30:18;;;;;;;6.43;3.58;;;;;;;20.06;72.93;101927.66;4992989;28;100789;-26
2023/06/22 06:32:45;;;;;;;8.80;4.05;;;;;;;20.11;72.08;101920.75;4993143;28;101383;-28
2023/06/22 06:35:12;;;;;;;8.50;4.53;;;;;;;20.10;72.35;101908.03;4993229;28;96770;-26
2023/06/22 06:37:39;;;;;;;10.23;3.78;;;;;;;20.21;72.58;101918.09;4993541;28;96819;-26
2023/06/22 06:40:10;;;;;;;6.43;3.47;;;;;;;20.22;71.61;101911.59;4993145;28;100825;-27
2023/06/22 06:42:41;;;;;;;5.30;3.40;;;;;;;20.33;71.26;101922.56;4994554;28;99245;-26
2023/06/22 06:45:08;;;;;;;5.53;3.58;;;;;;;20.32;71.69;101918.06;4994798;28;96627;-27
2023/06/22 06:47:33;;;;;;;6.47;3.40;;;;;;;20.34;71.61;101913.28;4993881;28;96856;-26
2023/06/22 06:49:59;;;;;;;6.03;3.00;;;;;;;20.42;71.15;101911.75;4994651;28;97856;-27
2023/06/22 06:52:25;;;;;;;5.20;3.42;;;;;;;20.46;71.34;101916.00;4993155;28;100931;-26
2023/06/22 06:54:51;;;;;;;5.85;3.42;;;;;;;20.50;70.90;101917.50;4976474;28;96525;-26
2023/06/22 06:57:17;;;;;;;4.85;2.97;;;;;;;20.59;70.54;101913.94;4994567;28;96855;-26
2023/06/22 06:59:43;;;;;;;6.30;2.95;;;;;;;20.63;70.32;101898.03;4993013;28;100946;-26
2023/06/22 07:02:08;;;;;;;7.97;3.28;;;;;;;20.63;70.09;101893.41;4994427;28;97783;-26
2023/06/22 07:04:34;;;;;;;5.80;3.10;;;;;;;20.72;70.11;101889.84;4994532;28;96753;-26
2023/06/22 07:07:01;;;;;;;5.03;2.55;;;;;;;20.82;69.96;101889.91;4994864;28;96762;-27
2023/06/22 07:09:27;;;;;;;5.45;3.08;;;;;;;21.04;69.17;101899.00;4993026;28;101026;-26
2023/06/22 07:11:52;;;;;;;7.65;2.97;;;;;;;21.31;68.56;101899.28;4994562;28;99151;-26
2023/06/22 07:14:17;;;;;;;5.63;2.63;;;;;;;21.49;67.60;101888.50;4994614;28;96552;-27
2023/06/22 07:16:43;;;;;;;4.30;2.72;;;;;;;21.59;67.23;101888.53;4994804;28;96784;-27
2023/06/22 07:19:11;;;;;;;6.20;3.22;;;;;;;21.70;66.80;101887.56;4993544;28;99600;-28
2023/06/22 07:21:36;;;;;;;8.82;2.78;;;;;;;21.86;66.18;101882.34;4993940;28;99170;-27
2023/06/22 07:24:01;;;;;;;8.38;2.50;;;;;;;22.05;66.63;101887.03;4994592;28;96480;-26
2023/06/22 07:26:26;;;;;;;6.38;2.60;;;;;;;22.19;65.62;101881.06;4994679;28;96817;-27
2023/06/22 07:28:52;;;;;;;14.02;3.90;;;;;;;22.26;65.70;101881.38;4997163;28;98977;-26
2023/06/22 07:31:17;;;;;;;5.22;2.65;;;;;;;22.33;65.09;101896.34;4997558;28;97298;-27
2023/06/22 07:33:42;;;;;;;3.70;2.15;;;;;;;22.38;64.52;101883.00;4997890;28;96602;-28
2023/06/22 07:36:08;;;;;;;3.47;1.85;;;;;;;22.43;62.94;101885.31;4997625;28;96962;-27
2023/06/22 07:38:35;;;;;;;4.47;2.47;;;;;;;22.51;63.36;101888.19;4997274;28;98849;-27
2023/06/22 07:41:00;;;;;;;3.97;2.25;;;;;;;22.53;63.51;101886.16;4996042;28;99175;-26
2023/06/22 07:43:25;;;;;;;4.75;2.35;;;;;;;22.52;63.40;101883.53;4997324;28;96534;-26
2023/06/22 07:45:54;;;;;;;5.45;2.75;;;;;;;22.47;63.31;101876.56;4997954;28;96754;-27
2023/06/22 07:48:22;;;;;;;5.55;2.70;;;;;;;22.48;63.61;101883.84;4997047;28;99458;-26
2023/06/22 07:50:49;;;;;;;5.47;2.53;;;;;;;22.47;62.98;101870.19;4997393;28;98026;-27
2023/06/22 07:53:14;;;;;;;5.93;2.63;;;;;;;22.60;63.19;101867.13;4997644;28;96472;-28
2023/06/22 07:55:40;;;;;;;3.88;2.28;;;;;;;22.77;63.05;101868.25;4996241;28;96736;-27
2023/06/22 07:58:05;;;;;;;4.63;2.70;;;;;;;22.83;62.42;101860.19;4997255;28;97934;-27
2023/06/22 08:00:30;;;;;;;5.45;2.45;;;;;;;22.97;62.59;101863.53;4997661;28;97887;-27
2023/06/22 08:02:56;;;;;;;4.25;2.30;;;;;;;23.09;62.04;101863.19;4997431;28;97266;-27
2023/06/22 08:05:21;;;;;;;3.88;1.80;;;;;;;23.17;60.91;101851.41;4997506;28;96748;-26
2023/06/22 08:07:47;;;;;;;3.20;1.42;;;;;;;23.28;60.44;101859.47;4996422;28;99321;-27
2023/06/22 08:10:13;;;;;;;2.28;1.20;;;;;;;23.36;59.43;101841.25;4997156;28;97957;-27
2023/06/22 08:12:39;;;;;;;4.75;1.10;;;;;;;23.43;57.53;101843.28;4995861;28;96627;-26
2023/06/22 08:15:07;;;;;;;2.13;1.10;;;;;;;23.54;58.05;101839.41;4995924;28;96895;-27
2023/06/22 08:17:33;;;;;;;2.42;1.10;;;;;;;23.64;57.80;101834.66;4995293;28;101001;-26
2023/06/22 08:19:58;;;;;;;2.05;0.95;;;;;;;23.72;57.22;101844.97;4997047;28;97894;-27
2023/06/22 08:22:24;;;;;;;1.55;1.13;;;;;;;23.92;56.80;101841.06;4997227;28;96559;-26
2023/06/22 08:24:49;;;;;;;4.15;1.85;;;;;;;24.04;56.83;101832.53;4997450;28;96769;-26
2023/06/22 08:27:16;;;;;;;3.53;1.90;;;;;;;24.17;56.63;101835.78;4997047;28;97375;-27
2023/06/22 08:29:42;;;;;;;4.53;2.28;;;;;;;24.28;56.96;101837.41;4996753;28;97876;-26
2023/06/22 08:32:09;;;;;;;6.28;3.38;;;;;;;24.34;57.50;101829.34;4996327;28;96587;-27
2023/06/22 08:34:36;;;;;;;7.10;3.45;;;;;;;24.50;57.37;101822.19;4995152;28;97664;-26
2023/06/22 08:37:01;;;;;;;5.30;2.72;;;;;;;24.63;57.19;101828.19;4995234;28;101113;-26
2023/06/22 08:39:28;;;;;;;5.57;2.92;;;;;;;24.56;57.57;101827.97;4996074;28;96676;-26
2023/06/22 08:41:53;;;;;;;6.70;3.90;;;;;;;24.43;57.83;101823.84;4996990;28;96683;-26
2023/06/22 08:44:19;;;;;;;8.07;3.83;;;;;;;24.23;58.47;101831.47;4996864;28;96809;-26
2023/06/22 08:46:45;;;;;;;7.10;3.75;;;;;;;24.03;58.68;101836.34;4994978;28;101504;-27
2023/06/22 08:49:10;;;;;;;8.07;4.10;;;;;;;23.90;59.70;101829.28;4995370;28;98954;-26
2023/06/22 08:51:36;;;;;;;8.40;4.20;;;;;;;23.80;60.07;101833.16;4996614;28;96705;-27
2023/06/22 08:54:02;;;;;;;6.85;4.13;;;;;;;23.78;60.04;101826.91;4996763;28;96751;-26
2023/06/22 08:56:27;;;;;;;7.82;4.15;;;;;;;23.79;60.50;101821.22;5005962;28;98650;-27
2023/06/22 08:58:52;;;;;;;10.60;4.22;;;;;;;23.81;60.64;101821.94;5016401;28;97777;-27
2023/06/22 09:01:18;;;;;;;8.55;4.82;;;;;;;23.79;60.54;101821.22;5016709;28;96796;-27
2023/06/22 09:03:43;;;;;;;7.22;4.18;;;;;;;23.77;60.44;101808.56;5016396;28;96715;-27
2023/06/22 09:06:12;;;;;;;9.82;4.35;;;;;;;23.82;60.93;101811.75;5016299;28;97530;-26
2023/06/22 09:08:37;;;;;;;8.32;4.35;;;;;;;23.82;60.72;101814.50;5014754;28;101057;-26
2023/06/22 09:11:02;;;;;;;6.82;4.20;;;;;;;23.90;60.63;101812.66;5016244;28;96727;-27
2023/06/22 09:13:31;;;;;;;9.65;4.20;;;;;;;23.92;61.36;101805.06;5016717;28;96818;-27
2023/06/22 09:15:56;;;;;;;9.95;5.13;;;;;;;23.94;61.26;101811.34;5015627;28;97928;-28
2023/06/22 09:18:21;;;;;;;9.88;4.68;;;;;;;23.98;61.05;101819.31;5016107;28;97932;-27
2023/06/22 09:20:47;;;;;;;11.02;4.55;;;;;;;23.91;60.99;101811.66;5015870;28;96539;-27
2023/06/22 09:23:12;;;;;;;10.18;5.32;;;;;;;23.91;61.09;101821.88;5016266;28;96765;-27
2023/06/22 09:25:38;;;;;;;11.00;5.38;;;;;;;23.86;61.20;101810.38;5015747;28;97355;-26
2023/06/22 09:28:03;;;;;;;8.18;5.10;;;;;;;23.91;61.32;101816.31;5015905;28;97778;-27
2023/06/22 09:30:28;;;;;;;9.52;5.78;;;;;;;23.93;61.66;101814.25;5015820;28;96745;-29
2023/06/22 09:32:54;;;;;;;8.70;5.28;;;;;;;23.91;62.04;101805.25;5016158;28;96802;-27
2023/06/22 09:35:19;;;;;;;9.50;5.05;;;;;;;23.90;61.56;101806.25;5014979;28;99467;-27
2023/06/22 09:37:45;;;;;;;9.70;5.15;;;;;;;23.92;61.54;101804.22;5014589;28;101104;-26
2023/06/22 09:40:12;;;;;;;9.35;5.28;;;;;;;23.97;61.74;101803.75;5014661;28;96593;-26
2023/06/22 09:42:38;;;;;;;9.38;5.65;;;;;;;23.88;62.00;101794.47;5014372;28;96794;-27
2023/06/22 09:45:05;;;;;;;9.30;5.43;;;;;;;23.98;61.83;101803.59;5013392;28;101012;-27
2023/06/22 09:47:30;;;;;;;7.80;4.50;;;;;;;24.02;61.57;101795.81;5014140;28;101222;-27
2023/06/22 09:49:56;;;;;;;9.40;4.53;;;;;;;23.99;61.83;101788.72;5014098;28;96611;-27
2023/06/22 09:52:22;;;;;;;7.40;4.30;;;;;;;23.98;61.44;101789.75;5015930;28;96758;-26
2023/06/22 09:54:47;;;;;;;7.15;4.40;;;;;;;23.98;61.36;101789.75;5015484;28;97360;-26
2023/06/22 09:57:13;;;;;;;8.43;4.57;;;;;;;23.97;61.46;101796.31;5015295;28;99470;-27
2023/06/22 09:59:39;;;;;;;6.90;4.22;;;;;;;23.95;60.83;101801.13;5015727;28;96661;-27
2023/06/22 10:02:06;;;;;;;6.90;4.10;;;;;;;23.93;61.24;101789.34;5014454;28;96841;-27
2023/06/22 10:04:32;;;;;;;7.70;3.65;;;;;;;23.92;60.68;101793.16;5015042;28;99729;-26
2023/06/22 10:06:57;;;;;;;7.38;4.35;;;;;;;23.92;61.43;101796.78;5015201;28;97278;-26
2023/06/22 10:09:22;;;;;;;7.55;4.13;;;;;;;23.89;60.94;101797.09;5009238;28;98528;-26
2023/06/22 10:11:48;;;;;;;9.77;4.35;;;;;;;23.86;60.61;101799.31;4998184;28;96830;-26
2023/06/22 10:14:13;;;;;;;7.72;4.28;;;;;;;23.83;60.98;101792.19;4993347;28;101138;-27
2023/06/22 10:16:40;;;;;;;8.77;3.72;;;;;;;23.85;61.18;101809.50;4995058;28;97856;-27
2023/06/22 10:19:06;;;;;;;6.00;3.22;;;;;;;23.77;61.21;101803.03;4995440;28;96941;-27
2023/06/22 10:21:34;;;;;;;5.97;3.33;;;;;;;23.73;61.33;101795.03;4995181;28;96935;-26
2023/06/22 10:24:05;;;;;;;6.90;3.35;;;;;;;23.72;60.92;101797.94;4994858;28;98181;-26
2023/06/22 10:26:31;;;;;;;5.78;3.03;;;;;;;23.65;60.62;101799.59;4995257;28;99703;-27
2023/06/22 10:28:56;;;;;;;6.47;3.03;;;;;;;23.62;60.06;101797.13;4995339;28;96577;-27
2023/06/22 10:31:21;;;;;;;5.25;3.15;;;;;;;23.62;60.23;101803.56;4995105;28;96784;-27
2023/06/22 10:33:49;;;;;;;5.03;3.13;;;;;;;23.59;59.52;101803.84;4994410;28;98572;-28
2023/06/22 10:36:15;;;;;;;5.65;3.65;;;;;;;23.50;59.97;101808.44;4993178;28;101663;-27
2023/06/22 10:38:40;;;;;;;7.07;3.67;;;;;;;23.52;60.07;101794.44;4994825;28;96558;-27
2023/06/22 10:41:05;;;;;;;6.63;3.85;;;;;;;23.51;60.33;101815.69;4995152;28;96762;-27
2023/06/22 10:43:31;;;;;;;9.63;3.85;;;;;;;23.54;59.92;101814.50;4994718;28;97867;-26
2023/06/22 10:45:56;;;;;;;8.90;3.95;;;;;;;23.58;60.18;101815.09;4994551;28;97948;-27
2023/06/22 10:48:22;;;;;;;6.35;3.90;;;;;;;23.59;60.12;101806.63;4995142;28;96763;-27
2023/06/22 10:50:47;;;;;;;5.55;3.20;;;;;;;23.61;59.82;101807.34;4995450;28;96771;-26
2023/06/22 10:53:12;;;;;;;6.25;3.45;;;;;;;23.62;59.41;101805.44;4993038;28;98401;-26
2023/06/22 10:55:38;;;;;;;6.22;3.78;;;;;;;23.63;59.27;101805.28;4994696;28;97961;-26
2023/06/22 10:58:03;;;;;;;4.95;3.08;;;;;;;23.58;58.67;101804.88;4994214;28;96739;-26
2023/06/22 11:00:28;;;;;;;5.80;3.15;;;;;;;23.62;59.13;101806.31;4994578;28;96796;-28
2023/06/22 11:02:54;;;;;;;5.32;3.22;;;;;;;23.58;59.50;101802.13;4992373;28;99719;-27
2023/06/22 11:05:19;;;;;;;5.53;3.20;;;;;;;23.59;59.38;101803.84;4992847;28;99256;-26
2023/06/22 11:07:45;;;;;;;5.88;3.45;;;;;;;23.62;59.22;101805.44;4994880;28;96668;-26
2023/06/22 11:10:11;;;;;;;5.75;3.45;;;;;;;23.61;59.14;101801.78;4993239;28;96877;-26
2023/06/22 11:12:37;;;;;;;6.65;3.63;;;;;;;23.66;59.65;101806.88;4992652;28;99026;-27
2023/06/22 11:15:02;;;;;;;7.90;3.47;;;;;;;23.66;59.60;101802.19;4994398;28;105488;-27
2023/06/22 11:17:28;;;;;;;7.55;4.20;;;;;;;23.63;59.60;101799.75;4994548;28;96749;-26